Time;durP1;ratioP1;P1;durP2;ratioP2;P2;SDS_P1;SDS_P2;PMS_P1;PMS_P2;Temp;Humidity;BMP_temperature;BMP_pressure;BME280_temperature;BME280_humidity;BME280_pressure;Samples;Min_cycle;Max_cycle;Signal;HPM_P1;HPM_P2
2022/01/06 00:01:32;;;;;;;28.02;3.40;;;;;;;1.57;100.00;99528.75;5056745;28;20078;-86
2022/01/06 00:03:57;;;;;;;23.08;3.83;;;;;;;1.55;100.00;99541.03;5057030;28;20389;-86
2022/01/06 00:06:24;;;;;;;17.58;3.10;;;;;;;1.65;100.00;99544.50;5056993;28;20389;-85
2022/01/06 00:08:49;;;;;;;25.50;3.75;;;;;;;1.67;100.00;99550.63;5057497;28;20025;-86
2022/01/06 00:11:15;;;;;;;29.40;3.72;;;;;;;1.65;100.00;99548.00;5057122;28;20044;-86
2022/01/06 00:16:33;;;;;;;19.40;3.38;;;;;;;1.72;100.00;99558.50;5057280;28;20433;-86
2022/01/06 00:24:13;;;;;;;16.23;3.20;;;;;;;1.81;100.00;99573.34;5058632;28;20075;-85
2022/01/06 00:26:38;;;;;;;23.50;3.55;;;;;;;1.80;100.00;99579.53;5058418;28;20025;-86
2022/01/06 00:29:04;;;;;;;25.50;3.45;;;;;;;1.78;100.00;99584.78;5058091;28;20025;-86
2022/01/06 00:31:31;;;;;;;20.38;3.70;;;;;;;1.78;100.00;99590.03;5058808;28;20478;-85
2022/01/06 00:33:56;;;;;;;19.48;3.38;;;;;;;1.77;100.00;99583.03;5059158;28;20024;-85
2022/01/06 00:36:21;;;;;;;20.52;3.10;;;;;;;1.74;100.00;99590.94;5057417;28;20070;-86
2022/01/06 00:38:47;;;;;;;12.75;3.13;;;;;;;1.70;100.00;99597.13;5059213;28;20035;-86
2022/01/06 00:41:12;;;;;;;20.98;3.28;;;;;;;1.72;100.00;99596.22;5057520;28;20474;-86
2022/01/06 00:43:37;;;;;;;15.13;3.08;;;;;;;1.73;100.00;99599.72;5057237;28;20024;-86
2022/01/06 00:46:03;;;;;;;20.13;3.42;;;;;;;1.79;100.00;99594.44;5058128;28;20024;-85
2022/01/06 00:48:28;;;;;;;19.48;3.05;;;;;;;1.78;100.00;99611.97;5059064;28;20021;-85
2022/01/06 00:50:54;;;;;;;17.08;2.97;;;;;;;1.81;100.00;99611.09;5058239;28;20025;-84
2022/01/06 00:53:19;;;;;;;21.50;3.28;;;;;;;1.81;100.00;99621.63;5056879;28;20060;-84
2022/01/06 00:55:44;;;;;;;17.50;3.30;;;;;;;1.78;100.00;99616.38;5056916;28;20047;-86
2022/01/06 00:58:10;;;;;;;15.65;3.05;;;;;;;1.76;100.00;99633.94;5061513;28;20017;-86
2022/01/06 01:00:38;;;;;;;15.77;3.30;;;;;;;1.73;100.00;99636.56;5059334;28;20071;-86
2022/01/06 01:03:11;;;;;;;16.95;3.30;;;;;;;1.77;100.00;99640.97;5059945;28;20048;-85
2022/01/06 01:05:40;;;;;;;17.15;2.85;;;;;;;1.67;100.00;99656.81;5060917;28;20036;-86
2022/01/06 01:08:05;;;;;;;16.20;2.75;;;;;;;1.57;100.00;99649.81;5059757;28;20013;-85
2022/01/06 01:10:31;;;;;;;17.67;2.90;;;;;;;1.37;100.00;99653.34;5060520;28;20025;-86
2022/01/06 01:12:56;;;;;;;15.98;2.58;;;;;;;1.27;100.00;99673.53;5058555;28;20405;-85
2022/01/06 01:15:23;;;;;;;13.48;2.97;;;;;;;1.30;100.00;99656.88;5057738;28;20401;-86
2022/01/06 01:17:49;;;;;;;15.80;2.80;;;;;;;1.32;100.00;99665.63;5058742;28;20025;-85
2022/01/06 01:20:16;;;;;;;16.42;2.50;;;;;;;1.30;100.00;99667.41;5056892;28;20024;-86
2022/01/06 01:22:42;;;;;;;20.67;3.63;;;;;;;1.34;100.00;99684.94;5056509;28;20029;-86
2022/01/06 01:25:08;;;;;;;15.15;3.10;;;;;;;1.32;100.00;99684.06;5057047;28;20516;-86
2022/01/06 01:27:38;;;;;;;23.02;3.67;;;;;;;1.30;100.00;99694.59;5056878;28;20029;-85
2022/01/06 01:30:11;;;;;;;17.48;3.13;;;;;;;1.27;100.00;99707.75;5056284;28;20076;-86
2022/01/06 01:32:38;;;;;;;21.73;3.22;;;;;;;1.22;100.00;99709.50;5054662;28;20111;-85
2022/01/06 01:35:07;;;;;;;18.58;2.88;;;;;;;1.14;100.00;99714.75;5055592;28;20504;-86
2022/01/06 01:37:32;;;;;;;21.30;3.47;;;;;;;1.13;100.00;99717.41;5054922;28;20057;-86
2022/01/06 01:39:58;;;;;;;19.23;3.40;;;;;;;1.06;100.00;99716.50;5056480;28;20537;-85
2022/01/06 01:42:25;;;;;;;13.75;2.45;;;;;;;1.06;100.00;99734.91;5056493;28;20068;-86
2022/01/06 01:44:51;;;;;;;16.30;3.17;;;;;;;1.02;100.00;99741.06;5055163;28;20116;-86
2022/01/06 01:47:28;;;;;;;20.77;3.78;;;;;;;0.99;100.00;99747.19;5055801;28;20032;-86
2022/01/06 01:50:09;;;;;;;17.38;3.38;;;;;;;0.96;100.00;99753.31;5054912;28;20032;-86
2022/01/06 01:52:34;;;;;;;15.73;3.25;;;;;;;0.92;100.00;99756.84;5055165;28;20024;-86
2022/01/06 01:54:59;;;;;;;16.42;3.55;;;;;;;0.90;100.00;99766.50;5056107;28;20037;-86
2022/01/06 01:57:25;;;;;;;13.75;3.13;;;;;;;0.88;100.00;99769.09;5054500;28;20017;-87
2022/01/06 01:59:51;;;;;;;25.00;4.60;;;;;;;0.89;100.00;99767.34;5056776;28;20090;-86
2022/01/06 02:02:16;;;;;;;13.43;3.40;;;;;;;0.90;100.00;99779.63;5055762;28;20556;-86
2022/01/06 02:04:41;;;;;;;17.25;4.10;;;;;;;0.88;100.00;99781.34;5054826;28;20028;-86
2022/01/06 02:07:07;;;;;;;15.48;3.92;;;;;;;0.86;100.00;99785.75;5053255;28;20040;-85
2022/01/06 02:09:32;;;;;;;17.85;3.40;;;;;;;0.84;100.00;99793.63;5053450;28;20024;-86
2022/01/06 02:11:57;;;;;;;11.82;3.00;;;;;;;0.85;100.00;99789.25;5054802;28;20116;-86
2022/01/06 02:14:26;;;;;;;17.02;4.40;;;;;;;0.85;100.00;99797.16;5055665;28;20386;-87
2022/01/06 02:16:53;;;;;;;13.73;3.38;;;;;;;0.85;100.00;99799.78;5054085;28;20032;-86
2022/01/06 02:19:19;;;;;;;16.55;3.70;;;;;;;0.82;100.00;99807.66;5055825;28;20051;-86
2022/01/06 02:21:44;;;;;;;13.65;3.60;;;;;;;0.82;100.00;99800.66;5058025;28;20021;-88
2022/01/06 02:24:09;;;;;;;21.25;3.55;;;;;;;0.81;100.00;99804.13;5053430;28;20041;-88
2022/01/06 02:26:35;;;;;;;21.88;3.53;;;;;;;0.71;100.00;99804.97;5054037;28;20020;-88
2022/01/06 02:29:00;;;;;;;17.50;3.20;;;;;;;0.66;100.00;99815.50;5054628;28;20082;-87
2022/01/06 02:31:25;;;;;;;17.27;4.07;;;;;;;0.69;100.00;99812.00;5053064;28;20082;-88
2022/01/06 02:33:51;;;;;;;12.93;2.90;;;;;;;0.66;100.00;99811.13;5054446;28;20075;-87
2022/01/06 02:36:16;;;;;;;17.85;3.47;;;;;;;0.66;100.00;99813.75;5054157;28;20078;-88
2022/01/06 02:38:42;;;;;;;17.35;3.22;;;;;;;0.63;100.00;99823.34;5054294;28;20021;-87
2022/01/06 02:41:07;;;;;;;17.27;3.33;;;;;;;0.65;100.00;99825.13;5054451;28;20017;-86
2022/01/06 02:43:33;;;;;;;15.43;3.08;;;;;;;0.61;100.00;99825.09;5054890;28;20028;-87
2022/01/06 02:45:58;;;;;;;13.75;2.80;;;;;;;0.58;100.00;99825.09;5054351;28;20025;-87
2022/01/06 02:48:24;;;;;;;19.05;3.28;;;;;;;0.53;100.00;99832.97;5052998;28;20013;-87
2022/01/06 02:50:50;;;;;;;15.85;2.75;;;;;;;0.44;100.00;99837.28;5052991;28;20031;-87
2022/01/06 02:53:17;;;;;;;15.32;2.97;;;;;;;0.43;100.00;99850.44;5054189;28;20053;-86
2022/01/06 02:55:49;;;;;;;10.52;3.08;;;;;;;0.43;100.00;99843.44;5053957;28;20024;-87
2022/01/06 02:58:15;;;;;;;18.70;2.92;;;;;;;0.32;100.00;99848.63;5054210;28;20025;-87
2022/01/06 03:00:40;;;;;;;22.65;3.08;;;;;;;0.32;100.00;99851.25;5053710;28;20367;-87
2022/01/06 03:03:05;;;;;;;13.32;2.47;;;;;;;0.29;100.00;99851.22;5052900;28;20021;-86
2022/01/06 03:05:31;;;;;;;13.52;2.38;;;;;;;0.22;100.00;99846.81;5055978;28;20032;-88
2022/01/06 03:07:56;;;;;;;13.27;2.95;;;;;;;0.22;100.00;99857.31;5056739;28;20424;-86
2022/01/06 03:10:22;;;;;;;11.98;2.42;;;;;;;0.20;100.00;99861.69;5054330;28;20036;-85
2022/01/06 03:12:49;;;;;;;12.05;2.38;;;;;;;0.14;100.00;99869.53;5053227;28;20021;-87
2022/01/06 03:15:20;;;;;;;13.00;2.22;;;;;;;0.16;100.00;99873.03;5053395;28;20032;-86
2022/01/06 03:17:48;;;;;;;7.30;1.73;;;;;;;0.15;100.00;99866.03;5053195;28;20021;-85
2022/01/06 03:20:15;;;;;;;12.80;2.25;;;;;;;0.13;100.00;99866.00;5053889;28;20155;-87
2022/01/06 03:22:41;;;;;;;6.82;2.05;;;;;;;0.13;100.00;99865.16;5054447;28;20024;-86
2022/01/06 03:25:09;;;;;;;9.38;2.03;;;;;;;0.16;100.00;99870.41;5053566;28;20474;-86
2022/01/06 03:27:34;;;;;;;13.93;2.80;;;;;;;0.12;100.00;99884.41;5053584;28;20067;-88
2022/01/06 03:30:00;;;;;;;7.82;1.83;;;;;;;0.14;100.00;99877.41;5054599;28;20025;-86
2022/01/06 03:32:25;;;;;;;10.40;2.17;;;;;;;0.10;100.00;99882.63;5053729;28;20100;-86
2022/01/06 03:34:50;;;;;;;10.90;2.13;;;;;;;0.08;100.00;99884.38;5052885;28;20025;-85
2022/01/06 03:37:16;;;;;;;8.50;1.83;;;;;;;0.15;100.00;99880.06;5053650;28;20039;-86
2022/01/06 03:39:43;;;;;;;13.68;2.55;;;;;;;0.22;100.00;99881.84;5054028;28;20027;-86
2022/01/06 03:42:10;;;;;;;8.18;1.77;;;;;;;0.24;100.00;99879.22;5052964;28;20051;-86
2022/01/06 03:44:35;;;;;;;10.23;1.85;;;;;;;0.14;100.00;99880.03;5053225;28;20075;-85
2022/01/06 03:47:01;;;;;;;10.57;2.40;;;;;;;0.17;100.00;99882.69;5052738;28;20029;-86
2022/01/06 03:49:26;;;;;;;7.70;1.80;;;;;;;0.27;100.00;99891.50;5053510;28;20025;-86
2022/01/06 03:51:52;;;;;;;9.27;2.08;;;;;;;0.23;100.00;99888.00;5053144;28;20025;-83
2022/01/06 03:54:17;;;;;;;10.40;2.30;;;;;;;0.08;100.00;99901.88;5054910;28;20465;-85
2022/01/06 03:56:42;;;;;;;7.65;2.10;;;;;;;0.04;100.00;99898.34;5053491;28;20025;-82
2022/01/06 03:59:08;;;;;;;7.55;2.20;;;;;;;0.06;100.00;99907.13;5053267;28;20032;-86
2022/01/06 04:01:34;;;;;;;9.10;2.13;;;;;;;0.01;100.00;99903.59;5054219;28;20428;-85
2022/01/06 04:03:59;;;;;;;14.65;2.88;;;;;;;0.03;100.00;99912.34;5053094;28;20029;-86
2022/01/06 04:06:25;;;;;;;15.43;3.60;;;;;;;0.08;100.00;99913.25;5053029;28;20084;-86
2022/01/06 04:08:50;;;;;;;14.38;3.88;;;;;;;0.04;100.00;99918.47;5053113;28;20016;-86
2022/01/06 04:11:15;;;;;;;17.52;3.90;;;;;;;0.04;100.00;99923.72;5054149;28;20029;-86
2022/01/06 04:13:41;;;;;;;15.25;3.55;;;;;;;0.00;100.00;99928.09;5054769;28;20029;-85
2022/01/06 04:16:09;;;;;;;14.02;3.78;;;;;;;0.07;100.00;99932.53;5053119;28;20029;-85
2022/01/06 04:18:34;;;;;;;14.65;3.72;;;;;;;0.15;100.00;99929.94;5053162;28;20440;-86
2022/01/06 04:20:59;;;;;;;14.23;3.03;;;;;;;0.12;100.00;99934.28;5054719;28;20577;-85
2022/01/06 04:23:25;;;;;;;15.85;3.10;;;;;;;-0.10;100.00;99937.63;5053229;28;20025;-86
2022/01/06 04:25:50;;;;;;;11.70;2.72;;;;;;;-0.05;100.00;99935.06;5053228;28;20025;-85
2022/01/06 04:28:15;;;;;;;8.40;2.85;;;;;;;-0.04;100.00;99937.69;5054465;28;20071;-85
2022/01/06 04:30:40;;;;;;;9.95;3.10;;;;;;;-0.16;100.00;99950.72;5054571;28;20041;-86
2022/01/06 04:33:06;;;;;;;13.65;3.50;;;;;;;-0.28;100.00;99947.09;5057120;28;20028;-86
2022/01/06 04:35:31;;;;;;;10.73;2.85;;;;;;;-0.31;100.00;99959.31;5056882;28;20023;-86
2022/01/06 04:37:57;;;;;;;13.73;3.28;;;;;;;-0.38;100.00;99959.25;5056482;28;20025;-85
2022/01/06 04:40:22;;;;;;;10.60;2.40;;;;;;;-0.42;100.00;99952.22;5056582;28;20027;-86
2022/01/06 04:42:47;;;;;;;11.50;2.20;;;;;;;-0.41;100.00;99958.34;5056261;28;20021;-86
2022/01/06 04:45:12;;;;;;;9.35;2.42;;;;;;;-0.37;100.00;99966.28;5055822;28;20501;-84
2022/01/06 04:47:38;;;;;;;13.95;3.17;;;;;;;-0.26;100.00;99973.38;5056748;28;20051;-87
2022/01/06 04:50:04;;;;;;;9.35;2.47;;;;;;;-0.14;100.00;99973.47;5055059;28;20083;-90
2022/01/06 04:52:30;;;;;;;13.05;3.20;;;;;;;-0.17;100.00;99983.06;5055224;28;20489;-88
2022/01/06 04:54:55;;;;;;;9.50;2.80;;;;;;;-0.23;100.00;99976.88;5054968;28;20036;-88
2022/01/06 04:57:20;;;;;;;14.40;2.78;;;;;;;-0.24;100.00;99985.63;5056468;28;20017;-88
2022/01/06 04:59:45;;;;;;;10.45;2.55;;;;;;;-0.42;100.00;99986.34;5056197;28;20028;-87
2022/01/06 05:02:11;;;;;;;8.50;2.50;;;;;;;-0.44;100.00;99989.81;5056083;28;20028;-87
2022/01/06 05:04:36;;;;;;;9.68;2.60;;;;;;;-0.47;100.00;99991.53;5055913;28;20058;-87
2022/01/06 05:07:01;;;;;;;10.80;2.80;;;;;;;-0.52;100.00;99989.72;5058054;28;20025;-86
2022/01/06 05:09:27;;;;;;;13.75;2.88;;;;;;;-0.51;100.00;99988.84;5068269;22;20031;-86
2022/01/06 05:11:52;;;;;;;10.68;3.05;;;;;;;-0.51;100.00;99991.47;5056007;28;20045;-87
2022/01/06 05:14:18;;;;;;;12.18;3.25;;;;;;;-0.58;100.00;100001.91;5055974;28;20362;-86
2022/01/06 05:16:43;;;;;;;14.40;3.83;;;;;;;-0.45;100.00;100009.91;5054865;28;20036;-88
2022/01/06 05:19:08;;;;;;;15.25;3.83;;;;;;;-0.41;100.00;100016.94;5055271;28;20056;-88
2022/01/06 05:21:34;;;;;;;12.48;4.07;;;;;;;-0.43;100.00;100017.78;5055253;28;20036;-87
2022/01/06 05:24:00;;;;;;;10.90;3.92;;;;;;;-0.49;100.00;100008.13;5054365;28;20375;-87
2022/01/06 05:26:26;;;;;;;11.07;3.63;;;;;;;-0.65;100.00;100012.31;5054187;28;20029;-88
2022/01/06 05:28:52;;;;;;;11.77;3.38;;;;;;;-0.61;100.00;100025.47;5054423;28;20021;-87
2022/01/06 05:31:17;;;;;;;11.10;3.40;;;;;;;-0.71;100.00;100018.34;5054265;28;20604;-87
2022/01/06 05:33:43;;;;;;;14.18;2.95;;;;;;;-0.76;100.00;100025.28;5054209;28;20469;-86
2022/01/06 05:36:08;;;;;;;11.55;3.28;;;;;;;-0.79;100.00;100029.63;5054970;28;20450;-87
2022/01/06 05:38:34;;;;;;;10.38;2.88;;;;;;;-0.86;100.00;100034.78;5062106;28;20004;-86
2022/01/06 05:40:59;;;;;;;8.60;3.08;;;;;;;-0.85;100.00;100041.78;5075696;28;20036;-87
2022/01/06 05:43:25;;;;;;;12.18;3.40;;;;;;;-0.92;100.00;100035.56;5076387;28;20025;-87
2022/01/06 05:45:53;;;;;;;8.65;3.40;;;;;;;-0.91;100.00;100032.97;5072257;28;20021;-87
2022/01/06 05:48:19;;;;;;;9.82;3.15;;;;;;;-0.91;100.00;100034.72;5072462;28;20048;-87
2022/01/06 05:50:48;;;;;;;21.48;3.80;;;;;;;-0.87;100.00;100033.00;5076026;28;20040;-87
2022/01/06 05:53:15;;;;;;;11.82;3.28;;;;;;;-0.85;100.00;100037.41;5076607;28;20032;-88
2022/01/06 05:55:40;;;;;;;11.48;3.05;;;;;;;-0.81;100.00;100041.84;5073906;28;20036;-88
2022/01/06 05:58:06;;;;;;;12.75;3.90;;;;;;;-0.87;100.00;100049.63;5055251;28;20028;-87
2022/01/06 06:00:31;;;;;;;14.63;3.65;;;;;;;-0.88;100.00;100042.63;5054675;28;20032;-86
2022/01/06 06:02:56;;;;;;;12.63;3.15;;;;;;;-0.88;100.00;100047.88;5054608;28;20025;-86
2022/01/06 06:05:21;;;;;;;14.70;3.38;;;;;;;-0.87;100.00;100049.63;5054185;28;20397;-87
2022/01/06 06:07:47;;;;;;;14.13;3.30;;;;;;;-0.87;100.00;100056.59;5055387;28;20048;-86
2022/01/06 06:10:12;;;;;;;13.52;3.50;;;;;;;-0.88;100.00;100063.59;5054788;28;20036;-87
2022/01/06 06:12:38;;;;;;;9.52;2.92;;;;;;;-0.72;100.00;100067.28;5054864;28;20020;-86
2022/01/06 06:15:03;;;;;;;7.32;2.90;;;;;;;-0.66;100.00;100069.13;5054868;28;20025;-86
2022/01/06 06:17:29;;;;;;;11.85;3.30;;;;;;;-0.66;100.00;100074.38;5054340;28;20539;-87
2022/01/06 06:19:54;;;;;;;12.38;3.70;;;;;;;-0.77;100.00;100074.22;5053407;28;20032;-86
2022/01/06 06:22:19;;;;;;;12.85;3.83;;;;;;;-0.74;100.00;100079.50;5054012;28;20040;-87
2022/01/06 06:25:05;;;;;;;12.77;4.40;;;;;;;-0.68;100.00;100087.47;5054583;28;20495;-87
2022/01/06 06:27:33;;;;;;;18.17;4.47;;;;;;;-0.75;100.00;100083.00;5053267;28;20398;-86
2022/01/06 06:29:58;;;;;;;12.82;4.03;;;;;;;-0.66;100.00;100087.47;5052913;28;20020;-86
2022/01/06 06:32:28;;;;;;;14.75;4.30;;;;;;;-0.44;100.00;100095.63;5053178;28;20120;-87
2022/01/06 06:34:53;;;;;;;14.25;4.18;;;;;;;-0.50;100.00;100088.56;5054562;28;20017;-87
2022/01/06 06:37:19;;;;;;;11.82;4.75;;;;;;;-0.64;100.00;100087.47;5054243;28;20063;-87
2022/01/06 06:39:44;;;;;;;18.77;4.05;;;;;;;-0.59;100.00;100089.31;5052979;28;20029;-87
2022/01/06 06:42:09;;;;;;;11.68;4.32;;;;;;;-0.66;100.00;100097.97;5054212;28;20025;-86
2022/01/06 06:44:35;;;;;;;15.18;4.90;;;;;;;-0.67;100.00;100093.59;5054520;28;20400;-86
2022/01/06 06:47:00;;;;;;;16.92;5.47;;;;;;;-0.70;100.00;100094.44;5053030;28;20477;-85
2022/01/06 06:49:26;;;;;;;23.65;5.35;;;;;;;-0.65;100.00;100091.88;5053731;28;20024;-86
2022/01/06 06:51:51;;;;;;;17.73;4.75;;;;;;;-0.67;100.00;100093.59;5054681;28;20045;-86
2022/01/06 06:54:19;;;;;;;15.05;5.00;;;;;;;-0.79;100.00;100095.19;5053136;28;20020;-86
2022/01/06 06:56:44;;;;;;;15.90;5.05;;;;;;;-0.78;100.00;100093.44;5053688;28;20025;-85
2022/01/06 06:59:10;;;;;;;18.63;4.88;;;;;;;-0.89;100.00;100103.78;5054433;28;20363;-87
2022/01/06 07:01:35;;;;;;;20.55;4.93;;;;;;;-0.94;100.00;100095.84;5056306;28;20495;-87
2022/01/06 07:04:06;;;;;;;14.40;4.88;;;;;;;-1.04;100.00;100105.31;5053771;28;20079;-86
2022/01/06 07:06:34;;;;;;;12.05;5.13;;;;;;;-1.12;100.00;100112.19;5053684;28;20028;-86
2022/01/06 07:08:59;;;;;;;14.65;4.97;;;;;;;-1.22;100.00;100105.94;5052630;28;20043;-86
2022/01/06 07:11:24;;;;;;;15.27;5.40;;;;;;;-1.25;100.00;100117.25;5054229;28;20033;-87
2022/01/06 07:13:50;;;;;;;21.70;6.32;;;;;;;-1.27;100.00;100125.94;5054200;28;20023;-89
2022/01/06 07:16:15;;;;;;;23.70;5.20;;;;;;;-1.36;100.00;100129.28;5053198;28;20063;-90
2022/01/06 07:18:41;;;;;;;18.35;6.03;;;;;;;-1.37;100.00;100122.28;5053105;28;20119;-90
2022/01/06 07:21:06;;;;;;;17.38;6.63;;;;;;;-1.39;100.00;100129.25;5052827;28;20025;-89
2022/01/06 07:23:31;;;;;;;15.27;5.70;;;;;;;-1.32;100.00;100138.97;5052594;28;20112;-89
2022/01/06 07:25:59;;;;;;;17.75;6.00;;;;;;;-1.29;100.00;100140.75;5053622;28;20071;-91
2022/01/06 07:28:24;;;;;;;16.58;5.50;;;;;;;-1.12;100.00;100146.25;5053814;28;20067;-91
2022/01/06 07:30:50;;;;;;;27.55;7.38;;;;;;;-1.16;100.00;100152.31;5053464;28;20032;-90
2022/01/06 07:33:24;;;;;;;23.88;7.63;;;;;;;-1.13;100.00;100149.72;5052384;28;20032;-90
2022/01/06 07:35:49;;;;;;;23.88;7.13;;;;;;;-1.13;100.00;100158.47;5052012;28;20025;-91
2022/01/06 07:38:14;;;;;;;26.17;7.78;;;;;;;-1.13;100.00;100162.81;5051934;28;20025;-91
2022/01/06 07:40:40;;;;;;;19.60;6.40;;;;;;;-1.13;100.00;100168.06;5052735;28;20066;-91
2022/01/06 07:43:06;;;;;;;22.45;8.73;;;;;;;-1.24;100.00;100167.91;5053527;28;20048;-91
2022/01/06 07:45:31;;;;;;;21.88;7.90;;;;;;;-1.29;100.00;100175.66;5053550;28;20036;-91
2022/01/06 07:47:58;;;;;;;24.67;7.50;;;;;;;-1.32;100.00;100177.38;5051870;28;20474;-90
2022/01/06 07:50:26;;;;;;;18.17;6.63;;;;;;;-1.36;100.00;100179.03;5052105;28;20025;-91
2022/01/06 07:52:51;;;;;;;22.83;6.63;;;;;;;-1.39;100.00;100182.50;5052667;28;20021;-91
2022/01/06 07:55:17;;;;;;;15.13;6.82;;;;;;;-1.32;100.00;100178.25;5053683;28;20052;-91
2022/01/06 07:57:54;;;;;;;17.98;6.60;;;;;;;-1.31;100.00;100189.59;5051961;28;20115;-90
2022/01/06 08:00:20;;;;;;;19.88;7.72;;;;;;;-1.30;100.00;100191.38;5051804;28;20112;-90
2022/01/06 08:02:45;;;;;;;24.27;7.18;;;;;;;-1.31;100.00;100190.47;5053328;28;20021;-90
2022/01/06 08:05:13;;;;;;;27.70;8.93;;;;;;;-1.39;100.00;100197.34;5052218;28;20454;-91
2022/01/06 08:07:39;;;;;;;19.33;7.03;;;;;;;-1.32;100.00;100204.47;5056567;28;20033;-89
2022/01/06 08:10:06;;;;;;;33.95;9.52;;;;;;;-1.39;100.00;100211.31;5056450;28;20139;-90
2022/01/06 08:12:31;;;;;;;23.15;9.35;;;;;;;-1.40;100.00;100206.06;5055489;28;20032;-89
2022/01/06 08:14:57;;;;;;;24.65;7.78;;;;;;;-1.38;100.00;100225.28;5055749;28;20033;-90
2022/01/06 08:17:22;;;;;;;23.50;8.43;;;;;;;-1.42;100.00;100223.50;5055276;28;20386;-91
2022/01/06 08:19:47;;;;;;;27.25;8.05;;;;;;;-1.36;100.00;100215.72;5055701;28;20466;-91
2022/01/06 08:22:14;;;;;;;29.38;10.38;;;;;;;-1.37;100.00;100213.97;5055706;28;20025;-91
2022/01/06 08:30:31;;;;;;;29.30;10.75;;;;;;;-1.26;100.00;100229.88;5035559;28;20053;-77
2022/01/06 08:32:57;;;;;;;34.72;10.32;;;;;;;-1.17;100.00;100229.16;5038398;28;20033;-76
2022/01/06 08:35:23;;;;;;;26.40;10.35;;;;;;;-1.16;100.00;100238.78;5038151;28;20031;-77
2022/01/06 08:37:49;;;;;;;35.33;10.40;;;;;;;-1.11;100.00;100239.75;5036972;28;20463;-77
2022/01/06 08:40:14;;;;;;;27.23;10.45;;;;;;;-1.06;100.00;100243.34;5037432;28;20116;-77
2022/01/06 08:42:39;;;;;;;36.25;10.98;;;;;;;-0.96;100.00;100251.34;5036704;28;20021;-77
2022/01/06 08:45:06;;;;;;;27.85;9.02;;;;;;;-0.84;100.00;100259.41;5039466;28;20029;-77
2022/01/06 08:47:31;;;;;;;25.70;10.65;;;;;;;-0.87;100.00;100259.34;5037567;28;20026;-77
2022/01/06 08:49:57;;;;;;;36.65;11.27;;;;;;;-0.86;100.00;100258.53;5034727;28;20417;-77
2022/01/06 08:52:22;;;;;;;32.50;11.13;;;;;;;-0.79;100.00;100252.50;5035986;28;20026;-77
2022/01/06 08:54:48;;;;;;;31.23;10.98;;;;;;;-0.79;100.00;100257.75;5036289;28;20021;-76
2022/01/06 08:57:13;;;;;;;36.88;11.30;;;;;;;-0.73;100.00;100256.09;5034769;28;20028;-77
2022/01/06 08:59:39;;;;;;;38.13;11.82;;;;;;;-0.77;100.00;100264.78;5036088;28;20047;-76
2022/01/06 09:02:04;;;;;;;32.53;12.65;;;;;;;-0.74;100.00;100264.81;5040145;28;20021;-77
2022/01/06 09:04:30;;;;;;;43.00;12.23;;;;;;;-0.68;100.00;100264.91;5040785;28;20025;-78
2022/01/06 09:06:55;;;;;;;33.67;11.00;;;;;;;-0.70;100.00;100270.16;5037104;28;20064;-78
2022/01/06 09:09:21;;;;;;;27.30;11.27;;;;;;;-0.68;100.00;100280.66;5039196;28;20052;-77
2022/01/06 09:11:46;;;;;;;30.70;10.68;;;;;;;-0.62;100.00;100277.25;5039852;28;20048;-78
2022/01/06 09:14:12;;;;;;;26.92;10.55;;;;;;;-0.54;100.00;100287.88;5037146;28;20025;-77
2022/01/06 09:16:39;;;;;;;23.88;9.63;;;;;;;-0.53;100.00;100282.63;5038324;28;20026;-78
2022/01/06 09:19:04;;;;;;;27.20;10.18;;;;;;;-0.48;100.00;100280.06;5037552;28;20024;-78
2022/01/06 09:21:29;;;;;;;27.45;10.18;;;;;;;-0.59;100.00;100279.91;5038241;28;20030;-78
2022/01/06 09:23:57;;;;;;;29.40;10.98;;;;;;;-0.51;100.00;100287.88;5039240;28;20033;-78
2022/01/06 09:26:22;;;;;;;26.15;9.40;;;;;;;-0.49;100.00;100286.19;5039700;28;20018;-77
2022/01/06 09:28:48;;;;;;;23.73;8.85;;;;;;;-0.39;100.00;100287.22;5038636;28;20108;-79
2022/01/06 09:31:13;;;;;;;29.58;9.65;;;;;;;-0.41;100.00;100291.56;5037359;28;20030;-79
2022/01/06 09:33:38;;;;;;;22.50;9.13;;;;;;;-0.35;100.00;100289.91;5038184;28;20032;-78
2022/01/06 09:36:04;;;;;;;25.88;9.00;;;;;;;-0.37;100.00;100296.00;5035981;28;20029;-78
2022/01/06 09:38:30;;;;;;;30.25;9.55;;;;;;;-0.28;100.00;100301.38;5036170;28;20022;-78
2022/01/06 09:40:55;;;;;;;24.15;8.75;;;;;;;-0.29;100.00;100303.97;5035532;28;20049;-77
2022/01/06 09:43:25;;;;;;;23.95;8.18;;;;;;;-0.17;100.00;100304.16;5036812;28;20056;-78
2022/01/06 09:45:51;;;;;;;25.88;8.85;;;;;;;-0.26;100.00;100309.28;5035310;28;20033;-77
2022/01/06 09:48:20;;;;;;;26.70;9.10;;;;;;;-0.22;100.00;100311.06;5037300;28;20025;-78
2022/01/06 09:50:45;;;;;;;23.75;8.20;;;;;;;-0.17;100.00;100314.66;5037131;28;20025;-79
2022/01/06 09:53:11;;;;;;;24.35;8.18;;;;;;;-0.16;100.00;100316.44;5035216;28;20095;-78
2022/01/06 09:55:37;;;;;;;21.10;7.50;;;;;;;-0.09;100.00;100319.13;5039457;28;20103;-78
2022/01/06 09:58:03;;;;;;;22.98;7.72;;;;;;;-0.08;100.00;100311.28;5035731;28;20057;-78
2022/01/06 10:00:30;;;;;;;22.42;7.97;;;;;;;-0.04;100.00;100310.47;5036210;28;20029;-78
2022/01/06 10:02:59;;;;;;;26.30;7.80;;;;;;;0.03;100.00;100306.16;5037369;28;20533;-77
2022/01/06 10:05:25;;;;;;;22.77;7.80;;;;;;;0.10;100.00;100315.88;5035945;28;20105;-77
2022/01/06 10:07:53;;;;;;;21.85;7.63;;;;;;;0.12;100.00;100307.16;5037815;28;20106;-77
2022/01/06 10:10:24;;;;;;;18.52;7.35;;;;;;;0.13;100.00;100311.56;5038529;28;20080;-78
2022/01/06 10:12:58;;;;;;;21.00;7.85;;;;;;;0.30;100.00;100310.03;5037496;28;20032;-77
2022/01/06 10:15:25;;;;;;;;;;;;;;;0.39;100.00;100313.63;5037872;28;20025;-77
2022/01/06 10:17:50;;;;;;;17.23;6.18;;;;;;;0.35;100.00;100317.09;5040065;28;19909;-78
2022/01/06 10:20:27;;;;;;;15.43;6.63;;;;;;;0.48;100.00;100321.63;5038150;28;20032;-78
2022/01/06 10:22:54;;;;;;;16.60;6.05;;;;;;;0.51;100.00;100319.06;5038173;28;20390;-78
2022/01/06 10:25:22;;;;;;;24.20;6.78;;;;;;;0.50;100.00;100322.53;5038833;28;20022;-78
2022/01/06 10:27:49;;;;;;;15.48;6.03;;;;;;;0.61;100.00;100313.91;5039240;28;20021;-78
2022/01/06 10:30:15;;;;;;;16.55;6.35;;;;;;;0.78;100.00;100317.59;5038870;28;20032;-78
2022/01/06 10:32:41;;;;;;;19.88;6.43;;;;;;;0.91;100.00;100322.97;5037414;28;20041;-78
2022/01/06 10:35:09;;;;;;;14.75;5.15;;;;;;;0.92;100.00;100319.50;5037026;28;20017;-78
2022/01/06 10:37:40;;;;;;;14.32;5.88;;;;;;;1.17;100.00;100325.00;5039852;28;20467;-78
2022/01/06 10:40:18;;;;;;;17.77;5.88;;;;;;;1.29;100.00;100328.63;5040768;28;20433;-77
2022/01/06 10:42:46;;;;;;;15.18;5.13;;;;;;;1.53;100.00;100324.41;5036488;28;20386;-77
2022/01/06 10:45:17;;;;;;;14.55;5.28;;;;;;;1.42;100.00;100330.47;5036380;28;20029;-77
2022/01/06 10:47:48;;;;;;;12.77;4.47;;;;;;;1.45;100.00;100325.22;5034113;28;20027;-77
2022/01/06 10:50:22;;;;;;;14.07;5.30;;;;;;;1.43;100.00;100329.59;5034110;28;20025;-77
2022/01/06 10:52:51;;;;;;;13.10;5.20;;;;;;;1.67;100.00;100330.69;5034343;28;20030;-77
2022/01/06 10:55:18;;;;;;;12.68;4.05;;;;;;;1.85;100.00;100339.59;5033951;28;20044;-77
2022/01/06 10:57:58;;;;;;;13.82;4.10;;;;;;;1.78;100.00;100343.00;5033446;28;20552;-77
2022/01/06 11:00:33;;;;;;;12.23;4.00;;;;;;;2.00;100.00;100338.78;5032232;28;20029;-76
2022/01/06 11:03:13;;;;;;;11.70;3.80;;;;;;;1.94;100.00;100337.84;5033780;28;20021;-76
2022/01/06 11:05:45;;;;;;;12.15;4.78;;;;;;;2.22;100.00;100327.47;5033417;28;20028;-76
2022/01/06 11:08:12;;;;;;;10.77;3.92;;;;;;;2.26;100.00;100334.53;5033408;28;20013;-77
2022/01/06 11:10:50;;;;;;;9.90;4.03;;;;;;;2.09;100.00;100337.94;5060637;22;20042;-85
2022/01/06 11:13:17;;;;;;;11.48;4.15;;;;;;;2.28;100.00;100332.78;5001231;28;20364;-84
2022/01/06 11:15:43;;;;;;;14.00;4.65;;;;;;;2.25;100.00;100334.50;5017484;28;20069;-84
2022/01/06 11:18:16;;;;;;;14.18;4.60;;;;;;;2.18;100.00;100331.88;5017685;28;20030;-85
2022/01/06 11:20:42;;;;;;;14.53;4.70;;;;;;;2.10;100.00;100326.56;5008057;28;20029;-86
2022/01/06 11:23:20;;;;;;;13.60;4.88;;;;;;;2.02;100.00;100330.88;5018089;28;20026;-86
2022/01/06 11:25:45;;;;;;;10.60;4.68;;;;;;;2.34;100.00;100327.56;5020736;28;20022;-85
2022/01/06 11:28:12;;;;;;;17.25;4.72;;;;;;;2.51;100.00;100329.38;5020693;28;20026;-85